createdAt,value
2018-02-12T00:02:04.489Z,11.00
2018-02-12T00:04:32.665Z,14.33
2018-02-12T00:07:00.736Z,8.10
2018-02-12T00:09:28.836Z,13.43
2018-02-12T00:11:56.819Z,14.13
2018-02-12T00:14:24.904Z,11.37
2018-02-12T00:16:52.904Z,15.50
2018-02-12T00:19:20.890Z,17.37
2018-02-12T00:21:48.905Z,7.63
2018-02-12T00:24:16.963Z,13.23
2018-02-12T00:26:45.020Z,12.60
2018-02-12T00:29:13.061Z,13.57
2018-02-12T00:31:41.044Z,13.37
2018-02-12T00:34:09.080Z,12.53
2018-02-12T00:36:37.142Z,12.70
2018-02-12T00:39:05.200Z,9.97
2018-02-12T00:41:33.158Z,8.80
2018-02-12T00:44:01.125Z,9.70
2018-02-12T00:46:29.151Z,15.40
2018-02-12T00:48:57.142Z,12.65
2018-02-12T00:51:25.187Z,8.50
2018-02-12T00:53:53.212Z,13.50
2018-02-12T00:56:21.232Z,7.60
2018-02-12T00:58:49.206Z,9.00
2018-02-12T01:01:17.203Z,8.57
2018-02-12T01:03:45.192Z,10.50
2018-02-12T01:06:13.159Z,12.03
2018-02-12T01:08:41.168Z,9.10
2018-02-12T01:11:09.171Z,11.13
2018-02-12T01:13:37.265Z,9.77
2018-02-12T01:16:05.264Z,9.40
2018-02-12T01:18:33.236Z,10.10
2018-02-12T01:21:01.238Z,5.33
2018-02-12T01:23:29.142Z,8.67
2018-02-12T01:25:58.143Z,8.57
2018-02-12T01:28:26.232Z,9.10
2018-02-12T01:30:54.189Z,8.70
2018-02-12T01:33:22.194Z,17.33
2018-02-12T01:35:50.296Z,8.50
2018-02-12T01:38:18.205Z,13.73
2018-02-12T01:40:46.129Z,9.13
2018-02-12T01:43:14.086Z,11.07
2018-02-12T01:45:42.021Z,11.30
2018-02-12T01:48:09.935Z,14.23
2018-02-12T01:50:37.908Z,12.60
2018-02-12T01:53:05.825Z,14.03
2018-02-12T01:55:33.832Z,16.10
2018-02-12T01:58:01.794Z,10.57
2018-02-12T02:00:29.786Z,12.32
2018-02-12T02:02:58.494Z,10.30
2018-02-12T02:05:26.428Z,10.00
2018-02-12T02:07:54.394Z,6.90
2018-02-12T02:10:22.373Z,12.10
2018-02-12T02:12:50.265Z,15.80
2018-02-12T02:15:18.245Z,12.47
2018-02-12T02:17:46.243Z,11.20
2018-02-12T02:20:14.225Z,15.67
2018-02-12T02:22:42.184Z,12.43
2018-02-12T02:25:10.122Z,14.67
2018-02-12T02:27:38.360Z,12.13
2018-02-12T02:30:06.253Z,8.17
2018-02-12T02:32:34.190Z,13.33
2018-02-12T02:35:02.203Z,10.13
2018-02-12T02:37:30.297Z,11.48
2018-02-12T02:39:58.608Z,11.00
2018-02-12T02:42:26.539Z,12.60
2018-02-12T02:44:54.446Z,15.20
2018-02-12T02:47:22.371Z,17.93
2018-02-12T02:49:50.341Z,15.23
2018-02-12T02:52:19.219Z,11.33
2018-02-12T02:54:47.137Z,13.50
2018-02-12T02:57:15.069Z,13.25
2018-02-12T02:59:43.049Z,13.00
2018-02-12T03:02:10.947Z,9.77
2018-02-12T03:04:38.896Z,12.18
2018-02-12T03:07:06.917Z,8.47
2018-02-12T03:09:34.842Z,12.75
2018-02-12T03:12:02.770Z,10.23
2018-02-12T03:14:31.530Z,15.00
2018-02-12T03:16:59.497Z,13.88
2018-02-12T03:19:27.459Z,19.27
2018-02-12T03:21:55.386Z,11.00
2018-02-12T03:24:23.300Z,11.23
2018-02-12T03:26:51.226Z,13.07
2018-02-12T03:29:19.141Z,8.20
2018-02-12T03:31:47.089Z,10.63
2018-02-12T03:34:15.013Z,10.97
2018-02-12T03:36:42.938Z,11.80
2018-02-12T03:39:10.868Z,14.40
2018-02-12T03:41:38.929Z,22.55
2018-02-12T03:44:06.937Z,11.03
2018-02-12T03:46:34.883Z,11.35
2018-02-12T03:49:03.055Z,10.87
2018-02-12T03:51:30.960Z,10.85
2018-02-12T03:53:59.693Z,9.88
2018-02-12T03:56:27.606Z,15.30
2018-02-12T03:58:55.719Z,10.95
2018-02-12T04:01:23.778Z,9.32
2018-02-12T04:03:51.677Z,12.43
2018-02-12T04:06:19.745Z,13.82
2018-02-12T04:08:47.658Z,16.57
2018-02-12T04:11:15.744Z,8.32
2018-02-12T04:13:43.696Z,9.57
2018-02-12T04:16:11.625Z,14.90
2018-02-12T04:18:39.584Z,12.50
2018-02-12T04:21:07.526Z,11.90
2018-02-12T04:23:35.515Z,12.18
2018-02-12T04:26:03.421Z,15.10
2018-02-12T04:28:31.803Z,14.18
2018-02-12T04:30:59.754Z,14.80
2018-02-12T04:33:27.721Z,11.77
2018-02-12T04:35:55.727Z,13.77
2018-02-12T04:38:23.706Z,15.07
2018-02-12T04:40:51.737Z,13.80
2018-02-12T04:43:19.711Z,13.88
2018-02-12T04:45:47.663Z,14.37
2018-02-12T04:48:15.572Z,12.20
2018-02-12T04:50:43.658Z,15.23
2018-02-12T04:53:11.579Z,14.87
2018-02-12T04:55:39.500Z,15.35
2018-02-12T04:58:07.430Z,12.07
2018-02-12T05:00:35.422Z,14.77
2018-02-12T05:03:03.350Z,14.00
2018-02-12T05:05:31.267Z,18.17
2018-02-12T05:07:59.190Z,18.20
2018-02-12T05:10:27.123Z,12.52
2018-02-12T05:12:55.126Z,15.07
2018-02-12T05:15:23.032Z,17.20
2018-02-12T05:17:50.991Z,17.20
2018-02-12T05:20:18.969Z,19.83
2018-02-12T05:22:46.921Z,19.83
2018-02-12T05:25:14.845Z,19.23
2018-02-12T05:27:42.773Z,14.73
2018-02-12T05:30:10.703Z,14.77
2018-02-12T05:32:38.598Z,11.93
2018-02-12T05:35:06.932Z,12.53
2018-02-12T05:37:34.924Z,13.23
2018-02-12T05:40:02.834Z,16.77
2018-02-12T05:42:30.761Z,15.63
2018-02-12T05:44:58.701Z,13.52
2018-02-12T05:47:26.809Z,18.03
2018-02-12T05:49:54.793Z,15.87
2018-02-12T05:52:22.736Z,15.60
2018-02-12T05:54:50.702Z,15.70
2018-02-12T05:57:18.654Z,17.50
2018-02-12T05:59:46.638Z,10.47
2018-02-12T06:02:14.536Z,15.97
2018-02-12T06:04:42.457Z,14.90
2018-02-12T06:07:10.367Z,17.93
2018-02-12T06:09:38.295Z,12.00
2018-02-12T06:12:06.340Z,14.97
2018-02-12T06:14:34.334Z,13.73
2018-02-12T06:17:02.304Z,11.63
2018-02-12T06:19:30.217Z,15.23
2018-02-12T06:21:58.257Z,14.87
2018-02-12T06:24:26.192Z,12.93
2018-02-12T06:26:54.090Z,16.27
2018-02-12T06:29:22.027Z,14.80
2018-02-12T06:31:50.027Z,14.80
2018-02-12T06:34:17.929Z,14.30
2018-02-12T06:36:45.853Z,17.13
2018-02-12T06:39:13.789Z,10.90
2018-02-12T06:41:41.693Z,11.23
2018-02-12T06:44:09.646Z,20.93
2018-02-12T06:46:37.593Z,14.83
2018-02-12T06:49:05.597Z,13.60
2018-02-12T06:51:33.584Z,16.10
2018-02-12T06:54:01.515Z,14.10
2018-02-12T06:56:29.606Z,12.43
2018-02-12T06:58:57.526Z,13.23
2018-02-12T07:01:25.444Z,18.43
2018-02-12T07:03:53.376Z,13.03
2018-02-12T07:06:21.389Z,15.23
2018-02-12T07:08:49.323Z,13.80
2018-02-12T07:11:17.458Z,14.23
2018-02-12T07:13:45.437Z,12.23
2018-02-12T07:16:13.913Z,12.40
2018-02-12T07:18:41.889Z,14.63
2018-02-12T07:21:09.917Z,11.93
2018-02-12T07:23:37.870Z,14.50
2018-02-12T07:26:05.885Z,12.90
2018-02-12T07:28:33.795Z,11.90
2018-02-12T07:31:01.814Z,10.73
2018-02-12T07:33:29.722Z,15.07
2018-02-12T07:35:57.650Z,11.87
2018-02-12T07:38:25.562Z,13.30
2018-02-12T07:40:53.577Z,15.40
2018-02-12T07:43:21.543Z,20.53
2018-02-12T07:45:49.450Z,17.57
2018-02-12T07:48:17.451Z,12.90
2018-02-12T07:50:45.610Z,16.83
2018-02-12T07:53:13.517Z,10.27
2018-02-12T07:55:41.445Z,20.10
2018-02-12T07:58:09.486Z,15.13
2018-02-12T08:00:37.421Z,14.07
2018-02-12T08:03:05.321Z,10.23
2018-02-12T08:05:33.224Z,11.90
2018-02-12T08:08:02.049Z,13.13
2018-02-12T08:10:29.966Z,12.13
2018-02-12T08:12:57.973Z,13.27
2018-02-12T08:15:25.941Z,12.40
2018-02-12T08:17:53.857Z,13.17
2018-02-12T08:20:21.817Z,11.20
2018-02-12T08:22:49.733Z,11.73
2018-02-12T08:25:17.661Z,13.60
2018-02-12T08:27:45.647Z,9.97
2018-02-12T08:30:13.558Z,12.93
2018-02-12T08:32:41.481Z,10.87
2018-02-12T08:35:09.561Z,14.80
2018-02-12T08:37:37.543Z,12.50
2018-02-12T08:40:05.457Z,14.63
2018-02-12T08:42:33.453Z,11.63
2018-02-12T08:45:01.362Z,11.90
2018-02-12T08:47:29.273Z,17.90
2018-02-12T08:49:57.222Z,9.60
2018-02-12T08:52:25.295Z,9.80
2018-02-12T08:54:53.300Z,9.20
2018-02-12T08:57:21.276Z,10.37
2018-02-12T08:59:49.211Z,9.57
2018-02-12T09:02:17.169Z,10.17
2018-02-12T09:04:45.328Z,11.23
2018-02-12T09:07:13.225Z,8.80
2018-02-12T09:09:41.145Z,8.47
2018-02-12T09:12:09.149Z,8.90
2018-02-12T09:14:37.094Z,11.27
2018-02-12T09:17:05.037Z,12.33
2018-02-12T09:19:32.978Z,10.40
2018-02-12T09:22:00.896Z,7.77
2018-02-12T09:24:28.831Z,8.20
2018-02-12T09:26:56.725Z,5.40
2018-02-12T09:29:24.681Z,7.97
2018-02-12T09:31:52.625Z,6.00
2018-02-12T09:34:20.783Z,6.93
2018-02-12T09:36:48.776Z,5.77
2018-02-12T09:39:16.784Z,15.63
2018-02-12T09:41:44.716Z,6.67
2018-02-12T09:44:12.641Z,10.97
2018-02-12T09:46:40.593Z,8.70
2018-02-12T09:49:08.518Z,6.80
2018-02-12T09:51:36.620Z,5.90
2018-02-12T09:54:04.506Z,8.27
2018-02-12T09:56:32.460Z,7.60
2018-02-12T09:59:00.361Z,6.60
2018-02-12T10:01:28.277Z,7.80
2018-02-12T10:03:56.324Z,4.90
2018-02-12T10:06:24.248Z,7.17
2018-02-12T10:08:52.139Z,8.40
2018-02-12T10:11:20.082Z,4.30
2018-02-12T10:13:47.980Z,5.63
2018-02-12T10:16:15.981Z,6.30
2018-02-12T10:18:43.898Z,4.70
2018-02-12T10:21:11.833Z,4.70
2018-02-12T10:23:39.854Z,7.13
2018-02-12T10:26:07.954Z,3.90
2018-02-12T10:28:35.972Z,5.13
2018-02-12T10:31:03.985Z,5.43
2018-02-12T10:33:31.934Z,4.20
2018-02-12T10:35:59.872Z,6.00
2018-02-12T10:38:27.809Z,6.03
2018-02-12T10:40:55.739Z,4.33
2018-02-12T10:43:23.735Z,4.50
2018-02-12T10:45:51.617Z,3.50
2018-02-12T10:48:19.611Z,3.57
2018-02-12T10:50:47.612Z,5.17
2018-02-12T10:53:15.549Z,5.30
2018-02-12T10:55:43.473Z,4.40
2018-02-12T10:58:11.418Z,7.17
2018-02-12T11:00:39.381Z,5.57
2018-02-12T11:03:07.301Z,5.13
2018-02-12T11:05:35.239Z,5.13
2018-02-12T11:08:03.185Z,8.10
2018-02-12T11:10:31.130Z,5.80
2018-02-12T11:12:59.054Z,6.30
2018-02-12T11:15:27.033Z,5.93
2018-02-12T11:17:54.973Z,8.30
2018-02-12T11:20:22.876Z,7.30
2018-02-12T11:22:50.839Z,5.80
2018-02-12T11:25:18.757Z,5.97
2018-02-12T11:27:46.682Z,10.57
2018-02-12T11:30:14.612Z,10.23
2018-02-12T11:32:42.567Z,7.17
2018-02-12T11:35:10.449Z,9.17
2018-02-12T11:37:38.400Z,10.30
2018-02-12T11:40:06.297Z,7.53
2018-02-12T11:42:34.202Z,6.60
2018-02-12T11:45:02.128Z,8.90
2018-02-12T11:47:30.581Z,8.00
2018-02-12T11:49:58.590Z,10.30
2018-02-12T11:52:26.558Z,8.80
2018-02-12T11:54:54.545Z,11.13
2018-02-12T11:57:22.444Z,6.70
2018-02-12T11:59:50.393Z,7.30
2018-02-12T12:02:18.329Z,6.50
2018-02-12T12:04:46.250Z,12.53
2018-02-12T12:07:14.223Z,9.67
2018-02-12T12:09:42.279Z,7.70
2018-02-12T12:12:10.159Z,8.70
2018-02-12T12:14:38.074Z,9.30
2018-02-12T12:17:06.013Z,7.90
2018-02-12T12:19:34.087Z,8.97
2018-02-12T12:22:02.221Z,10.90
2018-02-12T12:24:30.156Z,8.87
2018-02-12T12:26:58.084Z,10.40
2018-02-12T12:29:26.061Z,8.27
2018-02-12T12:31:53.997Z,7.57
2018-02-12T12:34:21.941Z,11.70
2018-02-12T12:36:49.892Z,10.80
2018-02-12T12:39:17.962Z,9.80
2018-02-12T12:41:45.915Z,10.57
2018-02-12T12:44:13.837Z,10.20
2018-02-12T12:46:41.767Z,10.47
2018-02-12T12:49:09.765Z,8.30
2018-02-12T12:51:37.744Z,16.17
2018-02-12T12:54:06.570Z,10.57
2018-02-12T12:56:34.474Z,12.97
2018-02-12T12:59:02.521Z,9.30
2018-02-12T13:01:30.475Z,12.30
2018-02-12T13:03:58.414Z,14.93
2018-02-12T13:06:26.346Z,16.10
2018-02-12T13:08:54.252Z,15.33
2018-02-12T13:11:22.218Z,16.30
2018-02-12T13:13:50.145Z,18.73
2018-02-12T13:16:18.061Z,24.40
2018-02-12T13:18:46.058Z,12.80
2018-02-12T13:21:13.973Z,10.23
2018-02-12T13:23:41.915Z,17.47
2018-02-12T13:26:09.841Z,11.57
2018-02-12T13:28:37.831Z,14.03
2018-02-12T13:31:05.736Z,13.20
2018-02-12T13:33:33.665Z,17.10
2018-02-12T13:36:01.597Z,26.67
2018-02-12T13:38:29.522Z,12.57
2018-02-12T13:40:57.450Z,13.40
2018-02-12T13:43:25.393Z,18.70
2018-02-12T13:45:53.319Z,18.63
2018-02-12T13:48:21.429Z,12.53
2018-02-12T13:50:49.492Z,12.37
2018-02-12T13:53:17.430Z,10.87
2018-02-12T13:55:45.429Z,14.80
2018-02-12T13:58:13.521Z,8.87
2018-02-12T14:00:41.427Z,13.10
2018-02-12T14:03:09.373Z,15.30
2018-02-12T14:05:37.379Z,13.47
2018-02-12T14:08:05.350Z,9.50
2018-02-12T14:10:33.338Z,11.93
2018-02-12T14:13:01.271Z,15.73
2018-02-12T14:15:29.200Z,13.90
2018-02-12T14:17:57.108Z,12.87
2018-02-12T14:20:25.021Z,11.33
2018-02-12T14:22:52.929Z,10.87
2018-02-12T14:25:20.857Z,11.70
2018-02-12T14:27:49.617Z,12.93
2018-02-12T14:30:17.621Z,13.63
2018-02-12T14:32:45.523Z,15.53
2018-02-12T14:35:13.487Z,11.07
2018-02-12T14:37:41.400Z,9.27
2018-02-12T14:40:09.381Z,14.60
2018-02-12T14:42:37.299Z,17.10
2018-02-12T14:45:06.072Z,10.00
2018-02-12T14:47:33.997Z,16.37
2018-02-12T14:50:02.489Z,9.47
2018-02-12T14:52:30.405Z,16.33
2018-02-12T14:54:58.342Z,17.20
2018-02-12T14:57:26.441Z,13.50
2018-02-12T14:59:54.457Z,18.97
2018-02-12T15:02:22.377Z,15.97
2018-02-12T15:04:50.365Z,14.83
2018-02-12T15:07:18.313Z,12.83
2018-02-12T15:09:46.262Z,11.73
2018-02-12T15:12:14.197Z,12.33
2018-02-12T15:14:42.295Z,15.93
2018-02-12T15:17:10.200Z,15.43
2018-02-12T15:19:38.131Z,9.80
2018-02-12T15:22:06.132Z,7.73
2018-02-12T15:24:34.203Z,12.53
2018-02-12T15:27:02.165Z,8.07
2018-02-12T15:29:30.070Z,7.80
2018-02-12T15:31:58.693Z,12.87
2018-02-12T15:34:26.624Z,11.30
2018-02-12T15:36:54.517Z,11.00
2018-02-12T15:39:22.453Z,11.87
2018-02-12T15:41:50.480Z,12.73
2018-02-12T15:44:18.386Z,15.03
2018-02-12T15:46:46.293Z,8.63
2018-02-12T15:49:14.417Z,8.50
2018-02-12T15:51:42.377Z,10.53
2018-02-12T15:54:10.285Z,10.73
2018-02-12T15:56:38.222Z,10.87
2018-02-12T15:59:06.150Z,6.40
2018-02-12T16:01:34.136Z,5.00
2018-02-12T16:04:02.044Z,8.17
2018-02-12T16:06:30.061Z,9.57
2018-02-12T16:08:57.965Z,20.50
2018-02-12T16:11:25.929Z,7.27
2018-02-12T16:13:53.845Z,6.93
2018-02-12T16:16:21.796Z,5.67
2018-02-12T16:18:49.813Z,8.17
2018-02-12T16:21:17.727Z,5.03
2018-02-12T16:23:45.802Z,6.53
2018-02-12T16:26:13.712Z,20.60
2018-02-12T16:28:41.690Z,13.20
2018-02-12T16:31:09.924Z,6.43
2018-02-12T16:33:37.837Z,6.20
2018-02-12T16:36:05.755Z,10.20
2018-02-12T16:38:33.747Z,7.90
2018-02-12T16:41:01.834Z,9.37
2018-02-12T16:43:29.864Z,11.43
2018-02-12T16:45:57.793Z,13.60
2018-02-12T16:48:25.807Z,8.03
2018-02-12T16:50:53.722Z,11.63
2018-02-12T16:53:21.696Z,9.40
2018-02-12T16:55:49.718Z,14.20
2018-02-12T16:58:17.621Z,13.80
2018-02-12T17:00:45.594Z,14.23
2018-02-12T17:03:13.524Z,9.40
2018-02-12T17:05:41.456Z,7.37
2018-02-12T17:08:09.429Z,7.90
2018-02-12T17:10:37.353Z,8.90
2018-02-12T17:13:05.253Z,8.30
2018-02-12T17:15:33.917Z,11.37
2018-02-12T17:18:02.530Z,6.20
2018-02-12T17:20:30.457Z,4.93
2018-02-12T17:22:58.398Z,6.27
2018-02-12T17:25:26.319Z,7.77
2018-02-12T17:27:54.297Z,4.90
2018-02-12T17:30:22.257Z,6.10
2018-02-12T17:32:50.201Z,6.60
2018-02-12T17:35:18.104Z,13.30
2018-02-12T17:37:46.272Z,5.93
2018-02-12T17:40:14.203Z,5.60
2018-02-12T17:42:42.210Z,3.63
2018-02-12T17:45:10.653Z,7.43
2018-02-12T17:47:38.681Z,6.53
2018-02-12T17:50:06.553Z,5.37
2018-02-12T17:52:34.507Z,6.37
2018-02-12T17:55:02.390Z,6.50
2018-02-12T17:57:30.341Z,8.47
2018-02-12T17:59:58.389Z,12.10
2018-02-12T18:02:26.320Z,6.07
2018-02-12T18:04:54.264Z,4.40
2018-02-12T18:07:22.346Z,6.20
2018-02-12T18:09:50.201Z,10.40
2018-02-12T18:12:18.129Z,4.13
2018-02-12T18:14:46.070Z,9.43
2018-02-12T18:17:13.970Z,5.40
2018-02-12T18:19:41.874Z,6.03
2018-02-12T18:22:09.872Z,5.40
2018-02-12T18:24:38.916Z,9.10
2018-02-12T18:27:06.872Z,7.73
2018-02-12T18:29:34.794Z,8.80
2018-02-12T18:32:02.913Z,9.50
2018-02-12T18:34:30.813Z,5.33
2018-02-12T18:36:58.736Z,8.63
2018-02-12T18:39:26.650Z,4.93
2018-02-12T18:41:55.133Z,6.07
2018-02-12T18:44:23.234Z,13.03
2018-02-12T18:46:51.805Z,9.47
2018-02-12T18:49:19.697Z,7.63
2018-02-12T18:51:47.624Z,8.30
2018-02-12T18:54:15.721Z,7.23
2018-02-12T18:56:43.635Z,8.53
2018-02-12T18:59:11.528Z,8.70
2018-02-12T19:01:39.505Z,7.67
2018-02-12T19:04:07.438Z,5.37
2018-02-12T19:06:35.407Z,7.10
2018-02-12T19:09:03.293Z,12.43
2018-02-12T19:11:31.205Z,6.00
2018-02-12T19:13:59.106Z,5.73
2018-02-12T19:16:27.181Z,7.73
2018-02-12T19:18:55.110Z,6.57
2018-02-12T19:21:23.009Z,8.10
2018-02-12T19:23:51.404Z,7.17
2018-02-12T19:26:19.437Z,7.53
2018-02-12T19:28:47.517Z,10.00
2018-02-12T19:31:15.425Z,9.30
2018-02-12T19:33:43.402Z,7.30
2018-02-12T19:36:11.307Z,6.80
2018-02-12T19:38:39.229Z,6.07
2018-02-12T19:41:07.142Z,10.47
2018-02-12T19:43:35.083Z,6.15
2018-02-12T19:46:03.017Z,7.83
2018-02-12T19:48:30.916Z,6.70
2018-02-12T19:50:58.849Z,6.60
2018-02-12T19:53:26.854Z,6.80
2018-02-12T19:55:54.754Z,9.10
2018-02-12T19:58:22.772Z,6.83
2018-02-12T20:00:50.813Z,5.20
2018-02-12T20:03:18.733Z,10.30
2018-02-12T20:05:46.681Z,11.77
2018-02-12T20:08:14.616Z,4.40
2018-02-12T20:10:42.534Z,5.57
2018-02-12T20:13:10.486Z,7.97
2018-02-12T20:15:38.409Z,8.80
2018-02-12T20:18:06.399Z,6.53
2018-02-12T20:20:34.394Z,5.67
2018-02-12T20:23:02.395Z,6.60
2018-02-12T20:25:30.300Z,4.57
2018-02-12T20:27:58.392Z,4.33
2018-02-12T20:30:26.404Z,5.83
2018-02-12T20:32:54.332Z,7.13
2018-02-12T20:35:22.238Z,6.30
2018-02-12T20:37:50.157Z,7.00
2018-02-12T20:40:18.077Z,6.43
2018-02-12T20:42:46.103Z,6.80
2018-02-12T20:45:14.026Z,5.60
2018-02-12T20:47:41.983Z,6.43
2018-02-12T20:50:10.655Z,4.70
2018-02-12T20:52:39.380Z,10.83
2018-02-12T20:55:07.350Z,6.73
2018-02-12T20:57:35.379Z,7.50
2018-02-12T21:00:03.288Z,4.87
2018-02-12T21:02:31.249Z,6.20
2018-02-12T21:04:59.224Z,8.53
2018-02-12T21:07:27.242Z,6.83
2018-02-12T21:09:55.154Z,6.90
2018-02-12T21:12:23.101Z,5.93
2018-02-12T21:14:51.290Z,6.07
2018-02-12T21:17:19.176Z,6.13
2018-02-12T21:19:47.172Z,5.70
2018-02-12T21:22:15.073Z,4.50
2018-02-12T21:24:43.086Z,9.00
2018-02-12T21:27:11.185Z,5.73
2018-02-12T21:29:39.124Z,7.40
2018-02-12T21:32:07.033Z,5.07
2018-02-12T21:34:35.009Z,6.13
2018-02-12T21:37:03.339Z,5.53
2018-02-12T21:39:31.309Z,7.20
2018-02-12T21:41:59.233Z,6.23
2018-02-12T21:44:27.141Z,8.60
2018-02-12T21:46:55.068Z,11.60
2018-02-12T21:49:23.022Z,8.20
2018-02-12T21:51:51.018Z,8.13
2018-02-12T21:54:19.024Z,8.40
2018-02-12T21:56:47.287Z,9.40
2018-02-12T21:59:15.217Z,8.40
2018-02-12T22:01:43.208Z,8.27
2018-02-12T22:04:11.179Z,11.47
2018-02-12T22:06:39.149Z,10.68
2018-02-12T22:09:07.094Z,7.62
2018-02-12T22:11:35.018Z,10.23
2018-02-12T22:14:02.933Z,8.60
2018-02-12T22:16:30.908Z,10.87
2018-02-12T22:18:58.883Z,13.93
2018-02-12T22:21:26.764Z,10.80
2018-02-12T22:23:54.977Z,13.35
2018-02-12T22:26:22.950Z,13.17
2018-02-12T22:28:51.003Z,14.07
2018-02-12T22:31:18.890Z,14.97
2018-02-12T22:33:46.840Z,18.23
2018-02-12T22:36:14.770Z,17.23
2018-02-12T22:38:43.401Z,17.60
2018-02-12T22:41:11.350Z,15.52
2018-02-12T22:43:39.373Z,16.27
2018-02-12T22:46:07.312Z,16.17
2018-02-12T22:48:36.037Z,19.33
2018-02-12T22:51:03.944Z,16.40
2018-02-12T22:53:31.945Z,17.70
2018-02-12T22:55:59.890Z,16.52
2018-02-12T22:58:27.838Z,15.73
2018-02-12T23:00:55.761Z,16.27
2018-02-12T23:03:23.673Z,15.60
2018-02-12T23:05:51.617Z,16.58
2018-02-12T23:08:19.565Z,16.62
2018-02-12T23:10:47.676Z,17.83
2018-02-12T23:13:15.668Z,17.37
2018-02-12T23:15:43.576Z,14.57
2018-02-12T23:18:11.651Z,18.45
2018-02-12T23:20:39.691Z,17.80
2018-02-12T23:23:07.605Z,20.00
2018-02-12T23:25:35.524Z,17.92
2018-02-12T23:28:03.667Z,22.52
2018-02-12T23:30:31.597Z,16.02
2018-02-12T23:32:59.609Z,19.20
2018-02-12T23:35:27.537Z,17.25
2018-02-12T23:37:55.464Z,19.77
2018-02-12T23:40:23.442Z,15.57
2018-02-12T23:42:51.361Z,16.03
2018-02-12T23:45:19.337Z,16.23
2018-02-12T23:47:47.281Z,16.00
2018-02-12T23:50:15.196Z,15.20
2018-02-12T23:52:43.166Z,16.10
2018-02-12T23:55:11.159Z,18.97
2018-02-12T23:57:39.074Z,16.50
